Time;durP1;ratioP1;P1;durP2;ratioP2;P2;SDS_P1;SDS_P2;PMS_P1;PMS_P2;Temp;Humidity;BMP_temperature;BMP_pressure;BME280_temperature;BME280_humidity;BME280_pressure;Samples;Min_cycle;Max_cycle;Signal;HPM_P1;HPM_P2
2023/05/13 00:01:37;;;;;;;;;;;;;;;16.74;53.07;101447.38;5078846;28;905;-58
2023/05/13 00:04:06;;;;;;;;;;;;;;;16.47;53.77;101446.56;5062686;28;1071;-58
2023/05/13 00:06:32;;;;;;;;;;;;;;;16.23;54.15;101446.81;5076242;28;1185;-58
2023/05/13 00:08:58;;;;;;;;;;;;;;;17.29;52.13;101433.66;5075858;28;1003;-58
2023/05/13 00:11:23;;;;;;;;;;;;;;;17.36;51.58;101438.94;5076165;28;1136;-58
2023/05/13 00:13:49;;;;;;;;;;;;;;;16.69;53.18;101441.84;5080047;28;1905;-58
2023/05/13 00:16:14;;;;;;;;;;;;;;;16.36;53.83;101432.69;5069597;28;1039;-58
2023/05/13 00:18:40;;;;;;;;;;;;;;;16.50;53.97;101440.53;5075495;28;1098;-58
2023/05/13 00:21:06;;;;;;;;;;;;;;;17.64;50.98;101432.25;5076427;28;1051;-58
2023/05/13 00:23:31;;;;;;;;;;;;;;;16.73;53.07;101444.91;5076276;28;1214;-58
2023/05/13 00:25:57;;;;;;;;;;;;;;;16.43;53.51;101441.56;5067120;28;900;-56
2023/05/13 00:28:23;;;;;;;;;;;;;;;17.42;51.79;101451.63;5075331;28;1039;-57
2023/05/13 00:30:48;;;;;;;;;;;;;;;17.15;52.15;101444.25;5076277;28;1141;-57
2023/05/13 00:33:14;;;;;;;;;;;;;;;16.63;53.23;101439.31;5061268;28;1980;-58
2023/05/13 00:35:40;;;;;;;;;;;;;;;16.41;53.36;101438.25;5062021;28;1331;-58
2023/05/13 00:38:06;;;;;;;;;;;;;;;16.75;53.26;101446.31;5091177;28;1205;-58
2023/05/13 00:40:32;;;;;;;;;;;;;;;17.69;50.99;101445.22;5079875;28;1045;-59
2023/05/13 00:42:58;;;;;;;;;;;;;;;16.76;53.00;101439.72;5079683;28;1217;-58
2023/05/13 00:45:24;;;;;;;;;;;;;;;16.42;53.61;101439.91;5079579;28;1197;-58
2023/05/13 00:47:49;;;;;;;;;;;;;;;17.19;52.21;101436.31;5079564;28;1093;-58
2023/05/13 00:50:15;;;;;;;;;;;;;;;17.28;51.63;101440.25;5084011;28;890;-57
2023/05/13 00:52:41;;;;;;;;;;;;;;;16.71;53.21;101445.16;5061709;28;1919;-57
2023/05/13 00:55:07;;;;;;;;;;;;;;;16.36;53.80;101460.13;5079935;28;1190;-57
2023/05/13 00:57:33;;;;;;;;;;;;;;;16.52;53.78;101449.34;5079290;28;1093;-57
2023/05/13 00:59:59;;;;;;;;;;;;;;;17.69;50.85;101450.72;5079311;28;1122;-57
2023/05/13 01:02:33;;;;;;;;;;;;;;;16.75;52.86;101449.06;5067130;28;976;-57
2023/05/13 01:05:02;;;;;;;;;;;;;;;16.38;53.52;101447.00;5056111;28;1217;-57
2023/05/13 01:07:30;;;;;;;;;;;;;;;16.27;53.82;101453.44;5079215;28;1118;-57
2023/05/13 01:10:01;;;;;;;;;;;;;;;17.52;51.50;101445.38;5072580;28;1149;-56
2023/05/13 01:12:31;;;;;;;;;;;;;;;16.96;52.51;101454.81;5069801;28;1973;-57
2023/05/13 01:15:07;;;;;;;;;;;;;;;16.48;53.45;101450.94;5065813;28;1221;-57
2023/05/13 01:17:39;;;;;;;;;;;;;;;16.30;53.70;101450.19;5071003;28;1070;-57
2023/05/13 01:20:05;;;;;;;;;;;;;;;17.49;51.34;101451.38;5078533;28;1012;-57
2023/05/13 01:22:31;;;;;;;;;;;;;;;17.11;52.15;101459.63;5061368;28;1058;-57
2023/05/13 01:24:56;;;;;;;;;;;;;;;16.63;53.33;101456.59;5078756;28;1147;-57
2023/05/13 01:27:22;;;;;;;;;;;;;;;16.36;53.57;101451.91;5060668;28;1415;-56
2023/05/13 01:29:48;;;;;;;;;;;;;;;16.62;53.67;101459.59;5078916;28;1139;-56
2023/05/13 01:32:19;;;;;;;;;;;;;;;17.58;51.20;101458.06;5061137;28;1980;-57
2023/05/13 01:34:44;;;;;;;;;;;;;;;16.75;52.90;101462.78;5060763;28;1202;-56
2023/05/13 01:37:10;;;;;;;;;;;;;;;16.47;53.34;101458.34;5085129;28;1103;-57
2023/05/13 01:39:37;;;;;;;;;;;;;;;17.39;51.96;101452.13;5061297;28;1465;-56
2023/05/13 01:42:06;;;;;;;;;;;;;;;17.18;52.07;101449.25;5060661;28;1252;-57
2023/05/13 01:44:32;;;;;;;;;;;;;;;16.68;53.32;101462.16;5078039;28;1218;-56
2023/05/13 01:46:58;;;;;;;;;;;;;;;16.42;53.44;101455.53;5044236;28;1179;-56
2023/05/13 01:49:24;;;;;;;;;;;;;;;16.18;54.04;101458.53;5061065;28;1023;-59
2023/05/13 01:51:50;;;;;;;;;;;;;;;16.97;52.90;101453.72;5060229;28;1209;-58
2023/05/13 01:54:16;;;;;;;;;;;;;;;17.30;51.45;101454.56;5078540;28;1898;-59
2023/05/13 01:56:46;;;;;;;;;;;;;;;16.64;53.08;101458.28;5060668;28;1152;-57
2023/05/13 01:59:12;;;;;;;;;;;;;;;16.36;53.59;101464.81;5060623;28;1387;-57
2023/05/13 02:01:39;;;;;;;;;;;;;;;17.26;52.13;101458.91;5068320;28;1170;-57
2023/05/13 02:04:05;;;;;;;;;;;;;;;17.23;51.96;101459.44;5078347;28;1193;-57
2023/05/13 02:06:31;;;;;;;;;;;;;;;16.65;53.28;101462.69;5060355;28;1237;-57
2023/05/13 02:08:57;;;;;;;;;;;;;;;16.32;53.64;101466.41;5060407;28;1123;-57
2023/05/13 02:11:23;;;;;;;;;;;;;;;16.60;53.50;101468.94;5059650;28;1118;-57
2023/05/13 02:13:49;;;;;;;;;;;;;;;17.61;51.05;101465.78;5054930;28;1914;-57
2023/05/13 02:16:18;;;;;;;;;;;;;;;16.75;53.03;101471.03;5072276;28;1154;-56
2023/05/13 02:18:44;;;;;;;;;;;;;;;16.41;53.72;101482.16;5059970;28;1093;-57
2023/05/13 02:21:09;;;;;;;;;;;;;;;16.21;53.65;101476.41;5059653;28;1150;-57
2023/05/13 02:23:35;;;;;;;;;;;;;;;17.44;51.59;101477.75;5060188;28;1138;-57
2023/05/13 02:26:00;;;;;;;;;;;;;;;17.07;52.28;101484.03;5086999;28;1150;-57
2023/05/13 02:28:26;;;;;;;;;;;;;;;16.56;53.47;101492.53;5060243;28;1154;-57
2023/05/13 02:30:51;;;;;;;;;;;;;;;16.23;53.87;101485.22;5077984;28;1038;-57
2023/05/13 02:33:17;;;;;;;;;;;;;;;17.58;51.21;101485.56;5063870;28;1902;-57
2023/05/13 02:35:43;;;;;;;;;;;;;;;17.20;51.97;101479.22;5077819;28;1146;-57
2023/05/13 02:38:09;;;;;;;;;;;;;;;16.64;53.08;101487.66;5074888;28;1235;-57
2023/05/13 02:40:34;;;;;;;;;;;;;;;16.40;53.44;101486.00;5057780;28;1127;-57
2023/05/13 02:43:00;;;;;;;;;;;;;;;16.83;53.30;101488.13;5064130;28;1130;-56
2023/05/13 02:45:39;;;;;;;;;;;;;;;17.42;51.45;101490.94;5031404;28;1243;-56
2023/05/13 02:48:05;;;;;;;;;;;;;;;16.69;53.04;101496.78;5076992;28;1042;-57
2023/05/13 02:50:31;;;;;;;;;;;;;;;16.38;53.50;101499.16;5068952;28;1158;-56
2023/05/13 02:52:56;;;;;;;;;;;;;;;16.37;53.91;101504.91;5047662;28;1978;-57
2023/05/13 02:55:23;;;;;;;;;;;;;;;17.70;50.85;101497.22;5057793;28;1240;-57
2023/05/13 02:57:48;;;;;;;;;;;;;;;16.86;52.79;101498.63;5077338;28;1217;-57
2023/05/13 03:00:14;;;;;;;;;;;;;;;16.47;53.43;101501.47;5077397;28;1066;-58
2023/05/13 03:02:40;;;;;;;;;;;;;;;16.28;54.05;101499.00;5081061;28;828;-57
2023/05/13 03:05:06;;;;;;;;;;;;;;;17.76;50.52;101496.16;5077052;28;1050;-57
2023/05/13 03:07:31;;;;;;;;;;;;;;;16.97;52.43;101505.06;5059309;28;1151;-57
2023/05/13 03:09:57;;;;;;;;;;;;;;;16.53;53.33;101511.41;5076911;28;1138;-56
2023/05/13 03:12:22;;;;;;;;;;;;;;;16.27;53.68;101505.59;5077251;28;1904;-57
2023/05/13 03:14:48;;;;;;;;;;;;;;;17.17;52.18;101518.22;5054846;28;978;-53
2023/05/13 03:17:14;;;;;;;;;;;;;;;17.40;51.20;101520.63;5048508;28;1115;-51
2023/05/13 03:19:39;;;;;;;;;;;;;;;16.67;52.98;101523.66;5045273;28;1157;-51
2023/05/13 03:22:05;;;;;;;;;;;;;;;16.50;53.36;101523.72;5049260;28;1354;-52
2023/05/13 03:24:31;;;;;;;;;;;;;;;16.48;53.84;101523.16;5058456;28;1135;-52
2023/05/13 03:26:57;;;;;;;;;;;;;;;17.66;50.75;101522.78;5056054;28;1129;-53
2023/05/13 03:29:23;;;;;;;;;;;;;;;16.83;52.65;101521.09;5058698;28;1132;-52
2023/05/13 03:31:51;;;;;;;;;;;;;;;16.42;53.75;101521.41;5057993;28;1448;-52
2023/05/13 03:34:17;;;;;;;;;;;;;;;16.18;53.75;101518.06;5058158;28;1913;-52
2023/05/13 03:36:43;;;;;;;;;;;;;;;16.56;53.81;101533.69;5058539;28;1539;-53
2023/05/13 03:39:09;;;;;;;;;;;;;;;17.69;50.91;101538.75;5070817;28;1257;-52
2023/05/13 03:41:36;;;;;;;;;;;;;;;16.77;52.83;101534.78;5058722;28;1356;-52
2023/05/13 03:44:02;;;;;;;;;;;;;;;16.42;53.43;101533.25;5053109;28;1479;-54
2023/05/13 03:46:27;;;;;;;;;;;;;;;16.58;53.56;101536.19;5055795;28;1091;-50
2023/05/13 03:48:54;;;;;;;;;;;;;;;17.77;50.43;101522.56;5058798;28;1194;-51
2023/05/13 03:51:23;;;;;;;;;;;;;;;16.85;52.72;101538.16;5065602;28;1052;-52
2023/05/13 03:53:49;;;;;;;;;;;;;;;16.40;53.58;101520.84;5043736;28;1906;-46
2023/05/13 03:56:15;;;;;;;;;;;;;;;16.33;54.00;101520.22;5076457;28;1129;-54
2023/05/13 03:58:44;;;;;;;;;;;;;;;17.77;50.42;101525.31;5044413;28;1933;-54
2023/05/13 04:01:09;;;;;;;;;;;;;;;16.86;52.61;101518.66;5076502;28;1121;-55
2023/05/13 04:03:35;;;;;;;;;;;;;;;16.53;53.45;101527.88;5048054;28;1103;-54
2023/05/13 04:06:01;;;;;;;;;;;;;;;16.29;53.81;101528.09;5038390;28;1158;-52
2023/05/13 04:08:26;;;;;;;;;;;;;;;16.29;53.92;101530.84;5055612;28;1260;-54
2023/05/13 04:10:52;;;;;;;;;;;;;;;17.77;50.60;101522.56;5057615;28;1197;-56
2023/05/13 04:13:18;;;;;;;;;;;;;;;16.95;52.38;101530.06;5076335;28;1914;-53
2023/05/13 04:15:43;;;;;;;;;;;;;;;16.48;53.52;101525.91;5073952;28;916;-54
2023/05/13 04:18:09;;;;;;;;;;;;;;;16.61;53.64;101527.44;5053792;28;1553;-54
2023/05/13 04:20:38;;;;;;;;;;;;;;;17.45;51.21;101525.34;5058137;28;1176;-51
2023/05/13 04:23:04;;;;;;;;;;;;;;;16.67;53.25;101533.81;5058329;28;1272;-54
2023/05/13 04:25:29;;;;;;;;;;;;;;;16.35;53.86;101520.78;5076522;28;1137;-53
2023/05/13 04:27:55;;;;;;;;;;;;;;;16.22;54.17;101521.97;5069623;28;1209;-53
2023/05/13 04:30:26;;;;;;;;;;;;;;;17.57;51.22;101531.50;5057761;28;1177;-55
2023/05/13 04:32:52;;;;;;;;;;;;;;;16.70;53.08;101528.63;5057903;28;1980;-55
2023/05/13 04:35:18;;;;;;;;;;;;;;;16.39;53.79;101536.47;5057738;28;1326;-56
2023/05/13 04:37:46;;;;;;;;;;;;;;;16.14;54.29;101528.72;5058328;28;1137;-56
2023/05/13 04:40:14;;;;;;;;;;;;;;;17.43;51.57;101536.59;5052763;28;1186;-56
2023/05/13 04:42:40;;;;;;;;;;;;;;;16.98;52.25;101532.28;5057712;28;1107;-57
2023/05/13 04:45:06;;;;;;;;;;;;;;;16.48;53.69;101536.03;5058043;28;1306;-54
2023/05/13 04:47:34;;;;;;;;;;;;;;;16.31;53.97;101530.59;5057884;28;1380;-54
2023/05/13 04:50:00;;;;;;;;;;;;;;;16.28;54.11;101544.84;5076774;28;1140;-48
2023/05/13 04:52:25;;;;;;;;;;;;;;;17.64;50.84;101550.50;5069303;28;1910;-55
2023/05/13 04:54:51;;;;;;;;;;;;;;;16.77;52.96;101555.91;5075645;28;1197;-55
2023/05/13 04:57:17;;;;;;;;;;;;;;;16.39;53.87;101558.44;5057955;28;1366;-50
2023/05/13 04:59:42;;;;;;;;;;;;;;;16.24;54.10;101561.81;5057784;28;1283;-52
2023/05/13 05:02:09;;;;;;;;;;;;;;;17.90;50.70;101548.00;5059109;28;1135;-53
2023/05/13 05:04:35;;;;;;;;;;;;;;;16.70;52.36;101567.06;5068347;28;1145;-54
2023/05/13 05:07:03;;;;;;;;;;;;;;;16.30;51.71;101557.22;5057727;28;1464;-54
2023/05/13 05:09:30;;;;;;;;;;;;;;;17.02;52.18;101560.91;5057623;28;1465;-53
2023/05/13 05:11:56;;;;;;;;;;;;;;;16.37;52.06;101557.88;5075848;28;1078;-53
2023/05/13 05:14:25;;;;;;;;;;;;;;;16.62;52.51;101562.06;5057962;28;1891;-52
2023/05/13 05:16:51;;;;;;;;;;;;;;;17.02;52.14;101562.84;5057174;28;1514;-53
2023/05/13 05:19:16;;;;;;;;;;;;;;;16.46;51.29;101571.16;5042251;28;1368;-54
2023/05/13 05:21:42;;;;;;;;;;;;;;;16.11;50.28;101564.91;5079272;28;1114;-53
2023/05/13 05:24:08;;;;;;;;;;;;;;;17.07;51.55;101571.13;5073851;28;1249;-53
2023/05/13 05:26:34;;;;;;;;;;;;;;;16.43;51.29;101558.78;5064351;28;1353;-55
2023/05/13 05:29:00;;;;;;;;;;;;;;;16.18;50.08;101565.53;5065441;28;1120;-52
2023/05/13 05:31:27;;;;;;;;;;;;;;;17.00;51.27;101557.59;5060934;28;1120;-53
2023/05/13 05:33:55;;;;;;;;;;;;;;;16.76;51.18;101565.25;5058973;28;1918;-55
2023/05/13 05:36:20;;;;;;;;;;;;;;;16.35;50.70;101573.75;5041113;28;1158;-54
2023/05/13 05:38:46;;;;;;;;;;;;;;;17.08;51.22;101565.38;5055872;28;1225;-51
2023/05/13 05:41:12;;;;;;;;;;;;;;;16.72;51.10;101564.91;5040791;28;1244;-53
2023/05/13 05:43:37;;;;;;;;;;;;;;;16.33;50.24;101570.44;5056240;28;1107;-53
2023/05/13 05:46:03;;;;;;;;;;;;;;;17.36;50.74;101562.63;5077974;28;1325;-51
2023/05/13 05:48:29;;;;;;;;;;;;;;;16.63;50.79;101560.94;5060111;28;1078;-53
2023/05/13 05:50:55;;;;;;;;;;;;;;;16.38;49.91;101564.19;5065249;28;1153;-54
2023/05/13 05:53:28;;;;;;;;;;;;;;;16.22;49.28;101572.19;5048031;28;1910;-53
2023/05/13 05:55:53;;;;;;;;;;;;;;;16.06;48.68;101564.81;5050393;28;1250;-53
2023/05/13 05:58:20;;;;;;;;;;;;;;;17.45;50.17;101572.91;5060197;28;1304;-53
2023/05/13 06:00:45;;;;;;;;;;;;;;;16.69;50.79;101576.41;5078134;28;1027;-58
2023/05/13 06:03:11;;;;;;;;;;;;;;;16.39;49.87;101571.34;5060491;28;1317;-59
2023/05/13 06:05:37;;;;;;;;;;;;;;;17.35;50.16;101567.31;5060492;28;1113;-57
2023/05/13 06:08:03;;;;;;;;;;;;;;;16.61;50.40;101568.63;5078339;28;1010;-58
2023/05/13 06:10:29;;;;;;;;;;;;;;;16.36;49.45;101577.34;5060557;28;1198;-58
2023/05/13 06:12:55;;;;;;;;;;;;;;;17.23;50.31;101574.88;5077835;28;1906;-58
2023/05/13 06:15:21;;;;;;;;;;;;;;;16.64;50.85;101572.78;5066541;28;1610;-59
2023/05/13 06:17:46;;;;;;;;;;;;;;;16.45;49.87;101566.75;5068601;28;1205;-58
2023/05/13 06:20:12;;;;;;;;;;;;;;;17.49;49.72;101566.88;5060223;28;1139;-57
2023/05/13 06:22:38;;;;;;;;;;;;;;;16.66;50.44;101560.47;5077731;28;1053;-58
2023/05/13 06:25:04;;;;;;;;;;;;;;;16.46;49.44;101555.50;5060136;28;1344;-58
2023/05/13 06:27:32;;;;;;;;;;;;;;;16.50;49.47;101558.59;5082186;28;1145;-59
2023/05/13 06:29:57;;;;;;;;;;;;;;;16.82;50.03;101560.66;5059234;28;1101;-58
2023/05/13 06:32:23;;;;;;;;;;;;;;;16.39;49.63;101563.91;5059210;28;1914;-58
2023/05/13 06:34:51;;;;;;;;;;;;;;;16.30;48.57;101559.13;5050695;28;1145;-58
2023/05/13 06:37:16;;;;;;;;;;;;;;;17.71;49.04;101553.91;5055823;28;1353;-57
2023/05/13 06:39:42;;;;;;;;;;;;;;;16.72;50.02;101559.44;5067558;28;1219;-58
2023/05/13 06:42:08;;;;;;;;;;;;;;;16.48;49.25;101552.50;5075943;28;1082;-59
2023/05/13 06:44:41;;;;;;;;;;;;;;;17.24;49.69;101557.31;5059838;28;1134;-62
2023/05/13 06:47:09;;;;;;;;;;;;;;;16.69;49.57;101570.09;5059131;28;1220;-61
2023/05/13 06:49:34;;;;;;;;;;;;;;;16.39;49.19;101569.41;5059475;28;1215;-59
2023/05/13 06:52:00;;;;;;;;;;;;;;;16.33;48.10;101561.38;5064652;28;1526;-63
2023/05/13 06:54:26;;;;;;;;;;;;;;;16.96;49.38;101564.69;5077058;28;1984;-62
2023/05/13 06:56:52;;;;;;;;;;;;;;;16.48;49.04;101568.97;5076992;28;1274;-62
2023/05/13 06:59:19;;;;;;;;;;;;;;;17.13;49.09;101583.03;5077055;28;1130;-62
2023/05/13 07:01:44;;;;;;;;;;;;;;;16.88;49.79;101584.34;5076903;28;1077;-60
2023/05/13 07:04:10;;;;;;;;;;;;;;;16.43;49.53;101577.97;5087812;28;1191;-61
2023/05/13 07:06:35;;;;;;;;;;;;;;;16.33;48.73;101589.66;5066084;28;1130;-62
2023/05/13 07:09:01;;;;;;;;;;;;;;;17.43;48.68;101580.59;5077286;28;1117;-59
2023/05/13 07:11:27;;;;;;;;;;;;;;;16.70;49.33;101575.31;5076912;28;1137;-63
2023/05/13 07:13:53;;;;;;;;;;;;;;;16.40;49.04;101579.31;5077420;28;1910;-62
2023/05/13 07:16:19;;;;;;;;;;;;;;;17.18;49.15;101572.91;5079270;28;1166;-64
2023/05/13 07:18:44;;;;;;;;;;;;;;;16.70;49.35;101577.25;5067523;28;1098;-62
2023/05/13 07:21:10;;;;;;;;;;;;;;;16.38;48.77;101581.50;5076816;28;1015;-62
2023/05/13 07:23:35;;;;;;;;;;;;;;;17.25;48.83;101580.94;5076182;28;1062;-60
2023/05/13 07:26:01;;;;;;;;;;;;;;;17.03;49.41;101579.06;5076726;28;1273;-60
2023/05/13 07:28:26;;;;;;;;;;;;;;;16.66;48.83;101576.94;5076751;28;843;-62
2023/05/13 07:30:52;;;;;;;;;;;;;;;16.46;48.38;101576.66;5076703;28;1023;-60
2023/05/13 07:33:18;;;;;;;;;;;;;;;16.33;47.78;101573.19;5076361;28;1971;-62
2023/05/13 07:35:44;;;;;;;;;;;;;;;17.10;48.53;101570.63;5075954;28;1077;-60
2023/05/13 07:38:12;;;;;;;;;;;;;;;16.58;49.08;101569.97;5076619;28;1121;-62
2023/05/13 07:40:38;;;;;;;;;;;;;;;16.74;49.26;101565.47;5080999;28;1131;-59
2023/05/13 07:43:03;;;;;;;;;;;;;;;16.97;49.13;101571.84;5066173;28;1094;-60
2023/05/13 07:45:29;;;;;;;;;;;;;;;17.55;48.67;101574.09;5058338;28;1510;-60
2023/05/13 07:47:55;;;;;;;;;;;;;;;18.75;47.25;101567.22;5076630;28;1276;-60
2023/05/13 07:50:20;;;;;;;;;;;;;;;17.39;49.48;101565.72;5079674;28;1078;-61
2023/05/13 07:52:48;;;;;;;;;;;;;;;16.90;49.60;101571.19;5083767;28;1902;-59
2023/05/13 07:55:14;;;;;;;;;;;;;;;16.75;48.39;101575.38;5076231;28;1079;-61
2023/05/13 07:57:40;;;;;;;;;;;;;;;16.56;48.19;101572.13;5076522;28;1047;-59
2023/05/13 08:00:05;;;;;;;;;;;;;;;16.71;48.25;101567.94;5076528;28;1528;-61
2023/05/13 08:02:38;;;;;;;;;;;;;;;17.04;49.45;101572.47;5076083;28;1007;-60
2023/05/13 08:05:04;;;;;;;;;;;;;;;16.76;48.60;101560.56;5079786;28;1074;-62
2023/05/13 08:07:30;;;;;;;;;;;;;;;16.64;48.08;101551.63;5068202;28;1123;-63
2023/05/13 08:09:55;;;;;;;;;;;;;;;16.47;47.62;101545.38;5076330;28;1046;-63
2023/05/13 08:12:21;;;;;;;;;;;;;;;17.32;48.19;101543.09;5075992;28;1097;-63
2023/05/13 08:14:46;;;;;;;;;;;;;;;16.80;48.75;101543.59;5076104;28;1983;-63
2023/05/13 08:17:12;;;;;;;;;;;;;;;16.53;48.36;101536.13;5067176;28;894;-63
2023/05/13 08:19:37;;;;;;;;;;;;;;;16.73;48.67;101541.88;5061180;28;1206;-63
2023/05/13 08:22:03;;;;;;;;;;;;;;;17.00;48.78;101532.88;5076059;28;1023;-63
2023/05/13 08:24:29;;;;;;;;;;;;;;;16.60;48.46;101534.00;5075776;28;1145;-63
2023/05/13 08:26:54;;;;;;;;;;;;;;;17.84;47.72;101532.50;5076212;28;1046;-62
2023/05/13 08:29:20;;;;;;;;;;;;;;;16.85;49.27;101541.72;5080529;28;1138;-64
2023/05/13 08:31:45;;;;;;;;;;;;;;;16.65;48.61;101547.81;5067763;28;1129;-61
2023/05/13 08:34:11;;;;;;;;;;;;;;;16.45;48.07;101542.03;5070743;28;1984;-62
2023/05/13 08:36:37;;;;;;;;;;;;;;;16.53;47.79;101544.34;5063839;28;1185;-61
2023/05/13 08:39:02;;;;;;;;;;;;;;;17.26;48.24;101544.13;5074027;28;1167;-61
2023/05/13 08:41:28;;;;;;;;;;;;;;;16.67;48.34;101542.88;5067787;28;853;-62
2023/05/13 08:43:54;;;;;;;;;;;;;;;16.52;48.00;101537.19;5060797;28;1167;-64
2023/05/13 08:46:19;;;;;;;;;;;;;;;16.32;47.63;101527.59;5058104;28;1117;-62
2023/05/13 08:48:45;;;;;;;;;;;;;;;17.60;47.49;101530.97;5075879;28;1082;-63
2023/05/13 08:51:10;;;;;;;;;;;;;;;16.74;48.67;101539.94;5075996;28;1162;-61
2023/05/13 08:53:37;;;;;;;;;;;;;;;16.62;48.06;101528.25;5088475;28;1962;-61
2023/05/13 08:56:03;;;;;;;;;;;;;;;16.74;47.96;101540.75;5079388;28;1051;-64
2023/05/13 08:58:28;;;;;;;;;;;;;;;17.04;48.15;101524.91;5061193;28;1066;-61
2023/05/13 09:00:54;;;;;;;;;;;;;;;16.56;48.31;101539.19;5079194;28;1114;-62
2023/05/13 09:03:20;;;;;;;;;;;;;;;16.40;48.02;101537.31;5061885;28;1142;-64
2023/05/13 09:05:46;;;;;;;;;;;;;;;17.39;47.23;101529.97;5084269;28;893;-62
2023/05/13 09:08:11;;;;;;;;;;;;;;;16.74;48.28;101535.28;5079510;28;1130;-62
2023/05/13 09:10:37;;;;;;;;;;;;;;;16.52;47.72;101538.03;5069048;28;1158;-61
2023/05/13 09:13:03;;;;;;;;;;;;;;;16.39;47.29;101528.25;5076082;28;1989;-62
2023/05/13 09:15:29;;;;;;;;;;;;;;;17.23;47.46;101517.97;5079344;28;1038;-65
2023/05/13 09:17:57;;;;;;;;;;;;;;;16.57;48.29;101534.53;5095189;28;1133;-63
2023/05/13 09:20:24;;;;;;;;;;;;;;;17.56;47.29;101545.53;5077204;28;1122;-65
2023/05/13 09:22:54;;;;;;;;;;;;;;;17.31;47.90;101541.44;5077183;28;1087;-65
2023/05/13 09:25:22;;;;;;;;;;;;;;;16.71;48.08;101538.53;5061018;28;1054;-64
2023/05/13 09:27:51;;;;;;;;;;;;;;;16.61;47.43;101541.16;5078492;28;1042;-63
2023/05/13 09:30:18;;;;;;;;;;;;;;;16.43;47.26;101529.38;5073062;28;891;-63
2023/05/13 09:32:44;;;;;;;;;;;;;;;16.34;46.91;101530.94;5078252;28;1906;-64
2023/05/13 09:35:10;;;;;;;;;;;;;;;16.85;47.24;101544.47;5078429;28;1169;-63
2023/05/13 09:37:36;;;;;;;;;;;;;;;16.98;47.93;101534.22;5078654;28;1087;-64
2023/05/13 09:40:02;;;;;;;;;;;;;;;16.63;47.74;101532.66;5078944;28;1067;-64
2023/05/13 09:42:28;;;;;;;;;;;;;;;16.62;48.00;101536.50;5091072;28;1166;-64
2023/05/13 09:44:53;;;;;;;;;;;;;;;17.19;47.83;101535.25;5078812;28;1139;-62
2023/05/13 09:47:19;;;;;;;;;;;;;;;16.64;48.12;101540.66;5060662;28;1212;-64
2023/05/13 09:49:44;;;;;;;;;;;;;;;16.88;48.02;101545.88;5078515;28;1098;-64
2023/05/13 09:52:10;;;;;;;;;;;;;;;17.41;47.64;101535.19;5078624;28;1026;-67
2023/05/13 09:54:38;;;;;;;;;;;;;;;16.80;48.11;101535.34;5098259;28;1910;-64
2023/05/13 09:57:04;;;;;;;;;;;;;;;16.57;47.83;101540.00;5079200;28;1134;-63
2023/05/13 09:59:33;;;;;;;;;;;;;;;16.51;47.08;101546.50;5078358;28;1077;-64
2023/05/13 10:01:59;;;;;;;;;;;;;;;17.54;46.96;101547.69;5078251;28;1002;-63
2023/05/13 10:04:25;;;;;;;;;;;;;;;16.76;48.00;101541.34;5078214;28;1204;-63
2023/05/13 10:06:51;;;;;;;;;;;;;;;16.51;47.85;101536.38;5047493;28;1226;-63
2023/05/13 10:09:16;;;;;;;;;;;;;;;17.75;47.09;101526.69;5078209;28;1150;-62
2023/05/13 10:11:43;;;;;;;;;;;;;;;16.94;48.36;101525.63;5060545;28;908;-59
2023/05/13 10:14:08;;;;;;;;;;;;;;;16.67;47.72;101517.34;5077867;28;1909;-60
2023/05/13 10:16:34;;;;;;;;;;;;;;;16.49;47.52;101527.53;5061175;28;1023;-63
2023/05/13 10:18:59;;;;;;;;;;;;;;;16.46;47.06;101521.75;5053921;28;1229;-63
2023/05/13 10:21:28;;;;;;;;;;;;;;;17.49;46.97;101522.88;5060098;28;1503;-58
2023/05/13 10:23:54;;;;;;;;;;;;;;;16.71;48.00;101527.56;5060149;28;1067;-59
2023/05/13 10:26:21;;;;;;;;;;;;;;;16.57;47.58;101524.34;5077782;28;1142;-62
2023/05/13 10:28:47;;;;;;;;;;;;;;;16.63;47.51;101517.00;5079046;28;1118;-61
2023/05/13 10:31:12;;;;;;;;;;;;;;;17.29;47.56;101507.84;5077737;28;1050;-59
2023/05/13 10:33:38;;;;;;;;;;;;;;;16.73;48.06;101513.56;5077758;28;1980;-63
2023/05/13 10:36:07;;;;;;;;;;;;;;;16.53;47.49;101512.22;5077508;28;1063;-62
2023/05/13 10:38:35;;;;;;;;;;;;;;;17.00;47.79;101504.53;5077976;28;1090;-59
2023/05/13 10:41:08;;;;;;;;;;;;;;;16.97;47.73;101503.16;5080837;28;1039;-63
2023/05/13 10:43:33;;;;;;;;;;;;;;;16.57;47.98;101509.81;5081955;28;1051;-60
2023/05/13 10:46:00;;;;;;;;;;;;;;;16.36;47.68;101505.97;5077185;28;1241;-63
2023/05/13 10:48:25;;;;;;;;;;;;;;;17.45;47.01;101492.34;5059573;28;1137;-59
2023/05/13 10:50:55;;;;;;;;;;;;;;;16.75;47.98;101487.50;5077573;28;1129;-59
2023/05/13 10:53:27;;;;;;;;;;;;;;;16.53;47.72;101492.19;5086732;28;1972;-58
2023/05/13 10:55:58;;;;;;;;;;;;;;;17.31;47.33;101488.38;5076900;28;1042;-59
2023/05/13 10:58:33;;;;;;;;;;;;;;;16.75;47.78;101482.00;5076955;28;1114;-59
2023/05/13 11:01:11;;;;;;;;;;;;;;;16.54;47.48;101491.94;5077120;28;1023;-61
2023/05/13 11:03:36;;;;;;;;;;;;;;;16.43;47.25;101488.22;5077686;28;1130;-60
2023/05/13 11:06:15;;;;;;;;;;;;;;;16.45;46.50;101487.13;5069700;28;1438;-58
2023/05/13 11:08:41;;;;;;;;;;;;;;;16.66;46.91;101488.22;5065402;28;1090;-58
2023/05/13 11:11:17;;;;;;;;;;;;;;;16.99;47.44;101487.25;5077279;28;1067;-59
2023/05/13 11:13:43;;;;;;;;;;;;;;;16.60;47.72;101495.56;5077159;28;1905;-61
2023/05/13 11:16:10;;;;;;;;;;;;;;;16.39;47.33;101500.78;5075937;28;1003;-61
2023/05/13 11:18:36;;;;;;;;;;;;;;;16.29;46.82;101502.59;5080809;28;912;-61
2023/05/13 11:21:03;;;;;;;;;;;;;;;16.22;46.43;101506.34;5076900;28;1189;-63
2023/05/13 11:23:28;;;;;;;;;;;;;;;17.41;46.71;101505.78;5059025;28;1111;-62
2023/05/13 11:26:15;;;;;;;;;;;;;;;16.86;47.76;101495.88;5076371;28;1132;-61
2023/05/13 11:29:02;;;;;;;;;;;;;;;16.51;47.59;101497.09;5077181;28;1121;-61
2023/05/13 11:31:40;;;;;;;;;;;;;;;17.10;47.72;101491.75;5065015;28;1101;-60
2023/05/13 11:34:08;;;;;;;;;;;;;;;16.60;47.57;101498.31;5076533;28;1917;-60
2023/05/13 11:36:34;;;;;;;;;;;;;;;16.46;47.28;101495.13;5076584;28;1212;-59
2023/05/13 11:39:12;;;;;;;;;;;;;;;16.75;47.66;101493.00;5058925;28;1142;-60
2023/05/13 11:41:47;;;;;;;;;;;;;;;17.21;47.29;101486.38;5081050;28;1166;-61
2023/05/13 11:44:14;;;;;;;;;;;;;;;16.58;48.00;101482.09;5063408;28;1135;-60
2023/05/13 11:46:49;;;;;;;;;;;;;;;16.49;47.46;101488.28;5076135;28;1139;-60
2023/05/13 11:49:33;;;;;;;;;;;;;;;16.49;47.31;101480.06;5076437;28;1070;-59
2023/05/13 11:52:18;;;;;;;;;;;;;;;17.03;47.44;101488.38;5076417;28;1047;-59
2023/05/13 11:54:50;;;;;;;;;;;;;;;16.60;47.72;101499.13;5089267;28;1965;-61
2023/05/13 11:57:19;;;;;;;;;;;;;;;16.42;47.12;101505.78;5063476;28;1047;-59
2023/05/13 11:59:56;;;;;;;;;;;;;;;16.29;46.92;101506.16;5076535;28;1135;-60
2023/05/13 12:02:33;;;;;;;;;;;;;;;16.53;47.12;101514.16;5076276;28;1170;-60
2023/05/13 12:05:03;;;;;;;;;;;;;;;16.90;47.36;101508.00;5076214;28;1103;-62
2023/05/13 12:07:29;;;;;;;;;;;;;;;16.45;47.41;101515.41;5082979;28;852;-62
2023/05/13 12:09:55;;;;;;;;;;;;;;;16.56;47.14;101532.84;5075996;28;1070;-64
2023/05/13 12:12:21;;;;;;;;;;;;;;;16.96;47.71;101520.72;5076407;28;1113;-57
2023/05/13 12:14:49;;;;;;;;;;;;;;;16.62;47.63;101531.00;5075770;28;1906;-59
2023/05/13 12:17:15;;;;;;;;;;;;;;;16.36;47.36;101530.69;5058930;28;1158;-57
2023/05/13 12:20:00;;;;;;;;;;;;;;;16.24;46.98;101533.50;5058829;28;980;-61
2023/05/13 12:22:25;;;;;;;;;;;;;;;16.30;46.50;101529.78;5076417;28;1070;-56
2023/05/13 12:24:51;;;;;;;;;;;;;;;17.14;46.77;101521.44;5076155;28;1070;-56
2023/05/13 12:27:16;;;;;;;;;;;;;;;16.93;47.40;101519.31;5075826;28;1182;-55
2023/05/13 12:29:42;;;;;;;;;;;;;;;16.50;47.45;101517.41;5082453;28;1123;-50
2023/05/13 12:32:08;;;;;;;;;;;;;;;16.38;47.37;101515.63;5085072;28;1104;-54
2023/05/13 12:34:33;;;;;;;;;;;;;;;17.58;46.51;101511.13;5080148;28;1930;-51
2023/05/13 12:37:09;;;;;;;;;;;;;;;16.74;47.65;101507.81;5079605;28;1055;-58
2023/05/13 12:39:35;;;;;;;;;;;;;;;16.47;47.68;101509.69;5080106;28;1122;-58
2023/05/13 12:42:01;;;;;;;;;;;;;;;16.56;47.69;101509.00;5075159;28;1177;-57
2023/05/13 12:44:28;;;;;;;;;;;;;;;16.92;47.44;101514.09;5080028;28;1228;-54
2023/05/13 12:46:55;;;;;;;;;;;;;;;16.52;47.67;101516.06;5079466;28;1131;-56